UNR Ag. Experiment Farm, Sparks, Nevada Weather observations

Data are for 10 minute period ending at time listed.
 Day   Time   Solar   Ave.   Ave.  Ave.  Vector  Max.   Baro.   Total    
  of    of     Rad.   Air    Rel.  Wind   Wind   Wind  Press.  Precip.   
Year   Day            Temp.  Hum.  Speed  Dir.   Gust                    
2016   (PST)  Kw/m2    F      %     mph   deg.    mph    mb.     in.     
-------------------------------------------------------------------------
 274    0:50   0.00   47.9    68    1.6   155     4.8   868.5    0.00 
 274    1:00   0.00   48.8    63    2.4   193     6.0   868.5    0.00 
 274    1:10   0.00   48.7    62    1.1   186     2.9   868.5    0.00 
 274    1:20   0.00   48.8    64    0.8   118     3.5   868.6    0.00 
 274    1:30   0.00   47.9    64    0.6   164     2.8   868.6    0.00 
 274    1:40   0.00   48.1    67    0.1    85     0.7   868.6    0.00 
 274    1:50   0.00   47.4    66    0.9    84     2.9   868.7    0.00 
 274    2:00   0.00   46.3    68    1.3   353     2.2   868.8    0.00 
 274    2:10   0.00   45.4    66    1.2   214     4.1   868.8    0.00 
 274    2:20   0.00   43.7    71    1.5   185     6.2   868.8    0.00 
 274    2:30   0.00   44.7    71    2.9   199     8.2   868.7    0.00 
 274    2:40   0.00   47.8    65    3.4   237     8.3   868.7    0.00 
 274    2:50   0.00   48.7    63    2.3   202     5.0   868.7    0.00 
 274    3:00   0.00   46.6    67    4.0   231     9.0   868.6    0.00 
 274    3:10   0.00   45.6    70    3.4   146    10.3   868.7    0.00 
 274    3:20   0.00   52.0    54    3.9   145    10.3   868.7    0.00 
 274    3:30   0.00   48.0    63    3.4   158     8.0   868.6    0.00 
 274    3:40   0.00   48.8    61    2.2   164     4.8   868.7    0.00 
 274    3:50   0.00   48.6    61    0.8   199     2.7   868.7    0.00 
 274    4:00   0.00   46.8    65    1.7   266     4.1   868.7    0.00 
 274    4:10   0.00   46.2    67    2.5   197     5.8   868.7    0.00 
 274    4:20   0.00   47.0    67    1.6   133     4.2   868.7    0.00 
 274    4:30   0.00   45.9    69    2.7   150     4.8   868.7    0.00 
 274    4:40   0.00   45.5    70    2.7   199     5.9   868.7    0.00 
 274    4:50   0.00   45.3    70    1.4   271     5.6   868.7    0.00 
 274    5:00   0.00   42.8    72    1.4   113     3.5   868.7    0.00 
 274    5:10   0.00   41.0    77    0.9   162     3.2   868.8    0.00 
 274    5:20   0.00   42.2    74    2.2   138     7.2   868.8    0.00 
 274    5:30   0.00   41.5    77    1.2   235     3.9   868.8    0.00 
 274    5:40   0.00   41.0    74    0.5   157     2.9   868.8    0.00 
 274    5:50   0.00   40.0    77    1.0    95     4.5   868.8    0.00 
 274    6:00   0.00   39.0    78    0.7    26     2.5   868.9    0.00 
 274    6:10   0.01   40.0    82    1.0   315     2.5   869.0    0.00 
 274    6:20   0.01   39.7    79    0.4   347     1.2   869.0    0.00 
 274    6:30   0.01   39.0    80    0.3    52     1.9   869.1    0.00 
 274    6:40   0.04   40.0    80    0.8   173     4.0   869.1    0.00 
 274    6:50   0.09   42.5    76    0.6   180     2.9   869.1    0.00 
 274    7:00   0.11   46.1    71    0.7   149     2.6   869.0    0.00 
 274    7:10   0.14   49.4    66    0.2   149     1.3   868.9    0.00 
 274    7:20   0.17   52.3    60    0.2   125     1.5   868.9    0.00 
 274    7:30   0.19   54.9    57    0.6    40     2.0   868.8    0.00 
 274    7:40   0.22   55.5    56    1.9   330     4.7   868.6    0.00 
 274    7:50   0.24   56.9    53    1.5    31     4.9   868.5    0.00 
 274    8:00   0.27   60.7    48    1.2    59     2.6   868.3    0.00 
 274    8:10   0.30   61.9    49    2.2    26     3.9   868.2    0.00 
 274    8:20   0.32   63.2    43    2.2     7     4.3   868.1    0.00 
 274    8:30   0.35   68.4    30    7.0   188    15.6   868.0    0.00 
 274    8:40   0.38   71.4    25   11.0   192    17.5   868.0    0.00 
 274    8:50   0.40   72.0    25   12.4   195    21.5   868.1    0.00 
 274    9:00   0.43   72.1    24   13.4   174    20.2   868.2    0.00 
 274    9:10   0.45   72.3    24   13.9   176    19.4   868.3    0.00 
 274    9:20   0.47   72.8    23   15.1   170    23.2   868.3    0.00 
 274    9:30   0.49   73.1    22   12.9   168    19.5   868.2    0.00 
 274    9:40   0.51   73.5    22   15.1   171    22.2   868.2    0.00 
 274    9:50   0.53   74.0    22   13.3   181    23.6   868.1    0.00 
 274   10:00   0.55   73.8    22   13.2   196    23.3   868.1    0.00 
 274   10:10   0.57   74.6    21   14.9   187    24.8   868.0    0.00 
 274   10:20   0.58   74.9    20   12.1   191    21.0   868.0    0.00 
 274   10:30   0.52   74.9    20   11.4   184    18.9   867.9    0.00 
 274   10:40   0.49   75.3    20   15.1   212    24.9   867.8    0.00 
 274   10:50   0.64   75.6    19   16.5   206    28.4   867.7    0.00 
 274   11:00   0.64   76.1    18   16.6   204    27.5   867.6    0.00 
 274   11:10   0.65   76.7    18   15.9   215    24.3   867.5    0.00 
 274   11:20   0.65   76.6    18   16.6   213    24.3   867.5    0.00 
 274   11:30   0.66   77.2    17   16.2   203    24.5   867.4    0.00 
 274   11:40   0.66   76.8    17   16.7   203    25.7   867.3    0.00 
 274   11:50   0.66   77.1    17   17.4   200    24.8   867.3    0.00 
 274   12:00   0.66   76.9    17   17.1   203    24.4   867.1    0.00 
 274   12:10   0.66   77.0    17   15.9   206    25.6   867.0    0.00 
 274   12:20   0.66   77.5    16   16.4   196    27.8   866.9    0.00 
 274   12:30   0.66   77.2    16   18.0   201    28.4   866.8    0.00 
 274   12:40   0.65   77.3    17   17.2   190    26.5   866.6    0.00 
 274   12:50   0.64   78.0    16   14.8   200    25.9   866.5    0.00 
 274   13:00   0.63   77.7    16   14.9   196    22.9   866.3    0.00 
 274   13:10   0.62   78.0    16   14.7   196    22.0   866.2    0.00 
 274   13:20   0.61   78.0    16   14.9   195    24.5   866.0    0.00 
 274   13:30   0.60   77.8    16   13.7   193    20.0   865.9    0.00 
 274   13:40   0.58   77.9    16   13.3   196    23.4   865.8    0.00 
 274   13:50   0.56   77.8    16   14.6   193    23.8   865.8    0.00 
 274   14:00   0.55   77.8    16   15.6   198    25.0   865.8    0.00 
 274   14:10   0.53   77.3    16   16.7   217    25.3   865.7    0.00 
 274   14:20   0.51   77.5    16   14.7   219    22.9   865.7    0.00 
 274   14:30   0.50   77.5    16   14.3   206    22.3   865.6    0.00 
 274   14:40   0.48   77.3    16   14.2   206    23.1   865.6    0.00 
 274   14:50   0.45   76.8    16   13.9   211    25.9   865.5    0.00 
 274   15:00   0.43   76.7    16   13.7   207    23.5   865.5    0.00 
 274   15:10   0.41   76.4    16   15.7   215    26.8   865.5    0.00 
 274   15:20   0.39   75.9    16   14.6   218    21.8   865.4    0.00 
 274   15:30   0.36   75.8    16   14.9   220    23.0   865.4    0.00 
 274   15:40   0.33   75.7    16   13.6   221    22.1   865.4    0.00 
 274   15:50   0.30   75.0    17   14.2   222    24.2   865.3    0.00 
 274   16:00   0.28   74.4    18   14.1   229    20.8   865.2    0.00 
 274   16:10   0.25   74.3    18   12.2   199    17.1   865.3    0.00 
 274   16:20   0.22   73.9    19   11.2   204    24.3   865.2    0.00 
 274   16:30   0.20   73.4    19   12.5   209    18.0   865.2    0.00 
 274   16:40   0.17   72.9    19   11.4   202    17.5   865.2    0.00 
 274   16:50   0.14   72.4    20   10.4   206    16.2   865.2    0.00 
 274   17:00   0.12   71.9    20   11.7   214    17.0   865.1    0.00 
 274   17:10   0.09   71.2    21    9.9   212    14.4   865.0    0.00 
 274   17:20   0.07   70.4    21    8.7   207    15.7   865.0    0.00 
 274   17:30   0.04   69.6    22    8.9   210    14.8   864.9    0.00 
 274   17:40   0.01   68.5    23    8.2   212    18.5   864.9    0.00 
 274   17:50   0.00   68.0    23    9.4   210    14.7   864.8    0.00 
 274   18:00   0.00   67.5    23    7.9   212    12.7   864.7    0.00 
 274   18:10   0.00   67.0    24    8.7   211    13.8   864.7    0.00 
 274   18:20   0.00   66.6    25    7.5   211    11.4   864.7    0.00 
 274   18:30   0.00   66.2    25    7.6   201    13.5   864.6    0.00 
 274   18:40   0.00   65.7    26    6.8   198    12.6   864.6    0.00 
 274   18:50   0.00   65.3    27    7.6   181    14.2   864.6    0.00 
 274   19:00   0.00   65.0    27    7.1   177    11.8   864.7    0.00 
 274   19:10   0.00   65.2    27    8.5   174    14.0   864.7    0.00 
 274   19:20   0.00   64.8    28    9.2   174    14.2   864.8    0.00 
 274   19:30   0.00   64.5    29    9.2   175    15.3   864.8    0.00 
 274   19:40   0.00   64.3    29    8.8   182    13.4   864.7    0.00 
 274   19:50   0.00   63.9    29    7.9   184    12.9   864.8    0.00 
 274   20:00   0.00   63.5    30    7.6   183    13.5   864.8    0.00 
 274   20:10   0.00   63.0    30    6.3   185    10.0   864.8    0.00 
 274   20:20   0.00   62.7    31    5.7   189    12.4   864.7    0.00 
 274   20:30   0.00   61.9    32    4.7   189     8.0   864.7    0.00 
 274   20:40   0.00   62.1    32    5.4   179     9.5   864.7    0.00 
 274   20:50   0.00   61.3    32    5.1   168    10.1   864.7    0.00 
 274   21:00   0.00   61.0    33    4.7   171     9.9   864.7    0.00 
 274   21:10   0.00   59.9    34    3.4   152     7.2   864.7    0.00 
 274   21:20   0.00   60.8    33    4.8   146    12.5   864.6    0.00 
 274   21:30   0.00   59.1    35    2.2   191     4.2   864.6    0.00 
 274   21:40   0.00   59.3    34    3.3   153     9.8   864.6    0.00 
 274   21:50   0.00   59.7    34    3.5   198     9.0   864.7    0.00 
 274   22:00   0.00   55.9    42    1.8   356     3.3   864.7    0.00 
 274   22:10   0.00   56.2    41    2.2   290     3.7   864.7    0.00 
 274   22:20   0.00   56.2    40    0.6   257     2.9   864.8    0.00 
 274   22:30   0.00   55.2    40    1.5   202     3.8   864.8    0.00 
 274   22:40   0.00   54.0    43    1.6   259     3.8   864.9    0.00 
 274   22:50   0.00   53.8    43    1.6   257     3.1   865.0    0.00 
 274   23:00   0.00   55.0    41    2.6   172     6.9   865.0    0.00 
 274   23:10   0.00   56.7    38    3.0   196     5.8   864.9    0.00 
 274   23:20   0.00   57.1    38    5.4   199     9.0   864.9    0.00 
 274   23:30   0.00   57.5    38    5.5   176     9.6   864.8    0.00 
 274   23:40   0.00   57.4    38    4.9   183     7.7   864.8    0.00 
 274   23:50   0.00   57.1    38    5.1   179     8.6   864.8    0.00 
 275    0:00   0.00   57.4    38    5.1   169     8.5   864.8    0.00 
 275    0:10   0.00   57.3    38    2.5   171     5.5   864.9    0.00 
 275    0:20   0.00   55.0    42    2.2   327     4.5   864.9    0.00 
 275    0:30   0.00   55.7    39    0.6   249     2.5   864.9    0.00 
 275    0:40   0.00   55.8    38    1.1   263     4.5   865.0    0.00 

Return to Sparks, Nevada, UNR Ag Experiment Farm graphs page.


Western Regional Climate Center,wrcc@dri.edu